Time;durP1;ratioP1;P1;durP2;ratioP2;P2;SDS_P1;SDS_P2;PMS_P1;PMS_P2;Temp;Humidity;BMP_temperature;BMP_pressure;BME280_temperature;BME280_humidity;BME280_pressure;Samples;Min_cycle;Max_cycle;Signal;HPM_P1;HPM_P2
2022/09/19 00:11:02;;;;;;;12.60;3.72;;;;;;;8.79;100.00;101010.34;4920489;29;20245;-79
2022/09/19 00:19:15;;;;;;;11.88;3.78;;;;;;;8.80;100.00;101004.19;5016500;28;20126;-79
2022/09/19 00:21:44;;;;;;;16.17;4.70;;;;;;;8.81;100.00;101005.84;5008595;28;20074;-79
2022/09/19 00:26:57;;;;;;;16.55;4.57;;;;;;;8.85;100.00;100998.56;5014151;28;20468;-78
2022/09/19 00:29:25;;;;;;;12.05;3.90;;;;;;;8.81;100.00;100984.97;5002033;28;20054;-78
2022/09/19 00:31:52;;;;;;;15.05;4.30;;;;;;;8.75;100.00;100992.50;4999910;28;20050;-78
2022/09/19 00:34:20;;;;;;;10.23;4.15;;;;;;;8.73;100.00;100987.41;5001495;28;20050;-78
2022/09/19 00:36:48;;;;;;;15.25;4.30;;;;;;;8.77;100.00;100994.00;5003694;28;20416;-78
2022/09/19 00:39:17;;;;;;;12.48;4.47;;;;;;;8.70;100.00;101003.34;5003234;28;20073;-79
2022/09/19 00:41:46;;;;;;;19.20;4.63;;;;;;;8.69;100.00;101004.28;5001727;28;20134;-78
2022/09/19 00:44:50;;;;;;;15.27;4.25;;;;;;;8.67;100.00;101002.78;5000603;28;20054;-79
2022/09/19 00:47:21;;;;;;;14.70;3.97;;;;;;;8.58;100.00;100989.56;4999436;28;20579;-78
2022/09/19 00:49:49;;;;;;;14.25;4.57;;;;;;;8.58;100.00;101005.22;4999702;28;20458;-79
2022/09/19 00:52:22;;;;;;;12.95;3.83;;;;;;;8.60;100.00;101010.31;4996899;28;20528;-77
2022/09/19 00:54:51;;;;;;;16.67;4.25;;;;;;;8.56;100.00;101004.53;4995974;28;20133;-77
2022/09/19 00:57:18;;;;;;;19.30;4.65;;;;;;;8.65;100.00;101000.31;4995916;28;20137;-77
2022/09/19 00:59:48;;;;;;;13.23;4.07;;;;;;;8.73;100.00;101005.69;4994680;28;20505;-77
2022/09/19 01:02:21;;;;;;;19.35;4.43;;;;;;;8.77;100.00;101012.28;4997364;28;20253;-77
2022/09/19 01:04:49;;;;;;;12.57;4.78;;;;;;;8.83;100.00;101010.91;5000194;28;20050;-79
2022/09/19 01:07:22;;;;;;;14.82;3.88;;;;;;;8.85;100.00;101009.81;4997753;28;20167;-78
2022/09/19 01:09:55;;;;;;;15.18;4.28;;;;;;;8.86;100.00;101021.09;4996432;28;20141;-78
2022/09/19 01:12:32;;;;;;;14.15;4.05;;;;;;;8.92;100.00;101012.72;4998353;28;20125;-78
2022/09/19 01:15:19;;;;;;;12.70;4.28;;;;;;;8.96;100.00;101012.31;5000402;28;20046;-79
2022/09/19 01:17:48;;;;;;;12.45;4.25;;;;;;;8.94;100.00;101024.66;4978815;28;20101;-78
2022/09/19 01:20:56;;;;;;;13.90;4.30;;;;;;;8.94;100.00;101029.88;4977351;28;20138;-78
2022/09/19 01:23:46;;;;;;;19.25;4.47;;;;;;;8.86;100.00;101026.31;4983404;28;20140;-77
2022/09/19 01:26:36;;;;;;;13.57;4.63;;;;;;;8.84;100.00;101023.81;4997891;28;20082;-77
2022/09/19 01:29:09;;;;;;;14.65;4.47;;;;;;;8.87;100.00;101028.78;4997056;28;20141;-77
2022/09/19 01:31:38;;;;;;;;;;;;;;;8.87;100.00;101031.38;4998640;28;20129;-78
2022/09/19 01:34:09;;;;;;;21.27;4.60;;;;;;;8.84;100.00;101029.06;5003208;28;20378;-78
2022/09/19 01:36:39;;;;;;;15.15;4.70;;;;;;;8.86;100.00;101027.13;5005153;28;20124;-78
2022/09/19 01:39:09;;;;;;;12.18;4.50;;;;;;;8.80;100.00;101025.06;4998603;28;20105;-78
2022/09/19 01:41:35;;;;;;;13.18;5.13;;;;;;;8.79;100.00;101026.00;4996930;28;20133;-80
2022/09/19 01:44:05;;;;;;;15.52;4.20;;;;;;;8.76;100.00;101028.88;5000206;28;20133;-78
2022/09/19 01:46:41;;;;;;;14.50;4.60;;;;;;;8.79;100.00;101035.63;4998689;28;20057;-79
2022/09/19 01:49:18;;;;;;;15.80;3.92;;;;;;;8.70;100.00;101033.81;5001452;28;20070;-80
2022/09/19 01:51:48;;;;;;;16.70;4.05;;;;;;;8.69;100.00;101035.59;5003656;28;20046;-79
2022/09/19 01:54:33;;;;;;;12.10;4.47;;;;;;;8.65;100.00;101034.22;5003944;28;20110;-81
2022/09/19 01:57:14;;;;;;;17.13;4.32;;;;;;;8.66;100.00;101043.69;5003818;28;20085;-81
2022/09/19 02:00:06;;;;;;;16.65;4.45;;;;;;;8.60;100.00;101031.19;5003201;28;20115;-80
2022/09/19 02:02:53;;;;;;;17.40;4.40;;;;;;;8.60;100.00;101041.63;4999228;28;20047;-80
2022/09/19 02:05:35;;;;;;;14.98;4.15;;;;;;;8.60;100.00;101046.84;5001890;28;20050;-80
2022/09/19 02:08:07;;;;;;;13.07;3.92;;;;;;;8.58;100.00;101043.53;5001481;28;20137;-81
2022/09/19 02:10:39;;;;;;;13.82;4.30;;;;;;;8.49;100.00;101050.38;5002648;28;20412;-80
2022/09/19 02:13:09;;;;;;;14.77;4.27;;;;;;;8.46;100.00;101049.81;5003226;28;20089;-80
2022/09/19 02:15:37;;;;;;;11.82;4.18;;;;;;;8.49;100.00;101049.56;5001155;28;20337;-79
2022/09/19 02:18:09;;;;;;;11.60;3.90;;;;;;;8.42;100.00;101051.06;5000014;28;20052;-77
2022/09/19 02:20:40;;;;;;;19.33;4.35;;;;;;;8.39;100.00;101053.91;5001061;28;20066;-79
2022/09/19 02:23:14;;;;;;;11.65;3.85;;;;;;;8.42;100.00;101059.69;5000775;28;20077;-79
2022/09/19 02:25:45;;;;;;;11.60;4.60;;;;;;;8.45;100.00;101062.03;5000183;28;20054;-80
2022/09/19 02:28:17;;;;;;;14.55;4.07;;;;;;;8.50;100.00;101061.66;4998906;28;20137;-79
2022/09/19 02:30:45;;;;;;;13.02;4.30;;;;;;;8.51;100.00;101068.47;4999509;28;20058;-79
2022/09/19 02:33:13;;;;;;;11.40;4.05;;;;;;;8.56;100.00;101061.91;5001529;28;20130;-80
2022/09/19 02:35:46;;;;;;;8.48;3.50;;;;;;;8.59;100.00;101060.81;5002157;28;20054;-79
2022/09/19 02:38:17;;;;;;;;;;;;;;;8.57;100.00;101063.56;5001711;28;20141;-80
2022/09/19 02:40:52;;;;;;;15.85;4.43;;;;;;;8.56;100.00;101068.91;5001897;28;19921;-79
2022/09/19 02:43:29;;;;;;;13.77;4.60;;;;;;;8.50;100.00;101064.25;5002071;28;20508;-79
2022/09/19 02:46:05;;;;;;;18.55;4.45;;;;;;;8.47;100.00;101061.91;5001677;28;20497;-79
2022/09/19 02:48:38;;;;;;;21.85;5.05;;;;;;;8.44;100.00;101055.19;5000268;28;20050;-78
2022/09/19 02:51:11;;;;;;;12.55;4.80;;;;;;;8.40;100.00;101066.00;5001830;28;20097;-80
2022/09/19 02:53:44;;;;;;;18.70;4.40;;;;;;;8.41;100.00;101067.66;5003286;28;20057;-80
2022/09/19 02:56:14;;;;;;;12.50;4.53;;;;;;;8.41;100.00;101067.66;5003971;28;20096;-80
2022/09/19 02:58:45;;;;;;;12.90;4.50;;;;;;;8.35;100.00;101058.56;5003959;28;20070;-80
2022/09/19 03:01:18;;;;;;;15.27;4.50;;;;;;;8.36;100.00;101070.66;5003495;28;20046;-81
2022/09/19 03:06:36;;;;;;;16.30;4.28;;;;;;;8.34;100.00;101063.91;5011095;28;19929;-79
2022/09/19 03:09:05;;;;;;;9.48;4.35;;;;;;;8.29;100.00;101072.91;5009862;28;20050;-79
2022/09/19 03:11:35;;;;;;;17.33;4.35;;;;;;;8.27;100.00;101069.63;5005873;28;20074;-79
2022/09/19 03:14:02;;;;;;;17.20;4.70;;;;;;;8.25;100.00;101068.09;5002936;28;20133;-81
2022/09/19 03:16:35;;;;;;;16.60;4.75;;;;;;;8.22;100.00;101071.78;5004804;28;20057;-81
2022/09/19 03:19:04;;;;;;;15.95;4.43;;;;;;;8.23;100.00;101073.44;5003221;28;20563;-81
2022/09/19 03:21:32;;;;;;;14.02;3.97;;;;;;;8.14;100.00;101079.41;5004831;28;20133;-81
2022/09/19 03:23:59;;;;;;;21.02;5.53;;;;;;;8.20;100.00;101070.25;5003854;28;20129;-81
2022/09/19 03:26:30;;;;;;;16.10;4.60;;;;;;;8.18;100.00;101072.16;5004469;28;20050;-80
2022/09/19 03:28:57;;;;;;;13.98;4.43;;;;;;;8.17;100.00;101070.50;5003304;28;20047;-80
2022/09/19 03:31:25;;;;;;;15.10;4.20;;;;;;;8.16;100.00;101076.69;5002404;28;20070;-80
2022/09/19 03:33:55;;;;;;;14.40;4.85;;;;;;;8.17;100.00;101088.75;5002922;28;20053;-80
2022/09/19 03:36:23;;;;;;;14.73;4.75;;;;;;;8.19;100.00;101079.03;5003147;28;20112;-81
2022/09/19 03:38:50;;;;;;;21.73;4.25;;;;;;;8.21;100.00;101083.16;5002357;28;20568;-80
2022/09/19 03:41:19;;;;;;;10.35;4.05;;;;;;;8.20;100.00;101083.28;5002333;28;20092;-80
2022/09/19 03:43:47;;;;;;;13.52;4.35;;;;;;;8.20;100.00;101081.50;5001187;28;20640;-80
2022/09/19 03:46:16;;;;;;;15.77;4.78;;;;;;;8.23;100.00;101098.69;5000710;28;20081;-79
2022/09/19 03:48:45;;;;;;;15.30;4.32;;;;;;;8.21;100.00;101096.19;5001093;28;20096;-79
2022/09/19 03:51:13;;;;;;;14.75;4.25;;;;;;;8.23;100.00;101091.69;5001739;28;20058;-79
2022/09/19 03:53:42;;;;;;;13.60;4.63;;;;;;;8.32;100.00;101090.94;4999904;28;20482;-79
2022/09/19 03:56:09;;;;;;;17.00;5.13;;;;;;;8.40;100.00;101092.06;5001738;28;20050;-80
2022/09/19 03:58:36;;;;;;;12.80;4.32;;;;;;;8.41;100.00;101086.72;5002350;28;20074;-80
2022/09/19 04:01:04;;;;;;;15.82;4.40;;;;;;;8.44;100.00;101098.69;5003602;28;20046;-80
2022/09/19 04:03:30;;;;;;;14.82;5.80;;;;;;;8.46;100.00;101092.38;5003624;28;20073;-80
2022/09/19 04:05:57;;;;;;;16.13;4.90;;;;;;;8.46;100.00;101096.78;5002821;28;20100;-79
2022/09/19 04:08:25;;;;;;;17.73;4.40;;;;;;;8.55;100.00;101103.78;5000749;28;20054;-78
2022/09/19 04:10:52;;;;;;;12.25;4.47;;;;;;;8.53;100.00;101103.09;5001057;28;20079;-78
2022/09/19 04:13:20;;;;;;;13.20;5.20;;;;;;;8.55;100.00;101106.41;5003611;28;20120;-79
2022/09/19 04:15:50;;;;;;;12.63;4.43;;;;;;;8.56;100.00;101116.69;5002346;28;20065;-80
2022/09/19 04:18:18;;;;;;;13.57;4.47;;;;;;;8.58;100.00;101106.13;5001204;28;20053;-80
2022/09/19 04:20:46;;;;;;;9.40;4.22;;;;;;;8.63;100.00;101117.81;5004603;28;20062;-79
2022/09/19 04:23:16;;;;;;;17.25;4.60;;;;;;;8.68;100.00;101112.22;5003817;28;20089;-80
2022/09/19 04:25:46;;;;;;;13.27;4.20;;;;;;;8.68;100.00;101112.22;5003790;28;20486;-78
2022/09/19 04:28:14;;;;;;;16.48;4.68;;;;;;;8.67;100.00;101118.38;5008364;28;20484;-79
2022/09/19 04:30:42;;;;;;;10.48;4.30;;;;;;;8.65;100.00;101109.88;5014313;28;20050;-79
2022/09/19 04:33:10;;;;;;;27.25;4.70;;;;;;;8.65;100.00;101121.13;5014589;28;20038;-80
2022/09/19 04:35:38;;;;;;;13.90;4.82;;;;;;;8.55;100.00;101111.59;5015632;28;20069;-79
2022/09/19 04:38:07;;;;;;;12.75;4.60;;;;;;;8.51;100.00;101121.47;5014985;28;20110;-78
2022/09/19 04:40:38;;;;;;;14.93;4.40;;;;;;;8.49;100.00;101127.81;5011765;28;20480;-77
2022/09/19 04:43:06;;;;;;;16.48;4.80;;;;;;;8.41;100.00;101138.06;5012772;28;20042;-78
2022/09/19 04:45:33;;;;;;;16.08;4.28;;;;;;;8.47;100.00;101134.94;5011118;28;20133;-78
2022/09/19 04:47:59;;;;;;;17.10;4.43;;;;;;;8.48;100.00;101139.19;5009458;28;20074;-77
2022/09/19 04:50:26;;;;;;;16.00;4.25;;;;;;;8.51;100.00;101128.47;5010133;28;20046;-78
2022/09/19 04:52:53;;;;;;;14.10;5.20;;;;;;;8.49;100.00;101140.84;5010360;28;20069;-78
2022/09/19 04:55:19;;;;;;;26.90;6.95;;;;;;;8.54;100.00;101146.47;5011029;28;20061;-79
2022/09/19 04:57:46;;;;;;;12.70;4.72;;;;;;;8.54;100.00;101146.47;5012894;28;20070;-79
2022/09/19 05:00:14;;;;;;;13.00;4.43;;;;;;;8.53;100.00;101148.25;5014012;28;20297;-79
2022/09/19 05:02:41;;;;;;;16.77;4.35;;;;;;;8.51;100.00;101144.13;5015458;28;20038;-79
2022/09/19 05:05:08;;;;;;;15.40;4.28;;;;;;;8.48;100.00;101142.63;5014864;28;20043;-79
2022/09/19 05:07:35;;;;;;;13.38;4.15;;;;;;;8.56;100.00;101152.38;5015206;28;20262;-80
2022/09/19 05:10:02;;;;;;;15.88;4.50;;;;;;;8.58;100.00;101143.47;5014929;28;20034;-80
2022/09/19 05:12:29;;;;;;;22.20;5.03;;;;;;;8.58;100.00;101142.66;5015876;28;20038;-79
2022/09/19 05:14:56;;;;;;;18.95;4.47;;;;;;;8.58;100.00;101140.88;5016253;28;20061;-79
2022/09/19 05:17:25;;;;;;;14.02;4.03;;;;;;;8.58;100.00;101155.69;5008808;28;20081;-82
2022/09/19 05:19:52;;;;;;;14.00;3.97;;;;;;;8.61;100.00;101147.59;5001084;28;20054;-80
2022/09/19 05:22:19;;;;;;;13.85;4.75;;;;;;;8.67;100.00;101148.88;5012351;28;20034;-81
2022/09/19 05:24:46;;;;;;;17.42;4.32;;;;;;;8.67;100.00;101159.31;5018627;28;20046;-79
2022/09/19 05:27:12;;;;;;;14.50;4.38;;;;;;;8.67;100.00;101157.53;5019065;28;20034;-80
2022/09/19 05:29:39;;;;;;;14.25;4.25;;;;;;;8.68;100.00;101164.41;5018268;28;20030;-80
2022/09/19 05:32:06;;;;;;;20.52;5.00;;;;;;;8.73;100.00;101164.00;5018348;28;20042;-79
2022/09/19 05:34:34;;;;;;;23.42;4.55;;;;;;;8.72;100.00;101165.78;5017868;28;20065;-80
2022/09/19 05:37:00;;;;;;;22.02;4.72;;;;;;;8.76;100.00;101169.78;5016444;28;20089;-80
2022/09/19 05:39:27;;;;;;;18.38;4.97;;;;;;;8.80;100.00;101179.00;5016976;28;20126;-80
2022/09/19 05:41:54;;;;;;;18.35;4.57;;;;;;;8.88;100.00;101186.19;5016750;28;20053;-79
2022/09/19 05:44:21;;;;;;;19.95;4.50;;;;;;;8.95;100.00;101175.09;5017852;28;20057;-79
2022/09/19 05:46:48;;;;;;;13.00;4.03;;;;;;;9.05;100.00;101182.94;5017346;28;20102;-79
2022/09/19 05:49:15;;;;;;;21.83;4.55;;;;;;;9.13;100.00;101184.88;5016447;28;20074;-78
2022/09/19 05:51:43;;;;;;;14.63;4.80;;;;;;;9.26;100.00;101183.69;5016903;28;20042;-80
2022/09/19 05:54:08;;;;;;;14.43;4.35;;;;;;;9.28;100.00;101188.78;5017791;28;20062;-79
2022/09/19 05:56:37;;;;;;;15.60;4.38;;;;;;;9.40;100.00;101197.34;5016514;28;20062;-78
2022/09/19 05:59:04;;;;;;;15.98;4.32;;;;;;;9.50;100.00;101198.97;5016400;28;20038;-79
2022/09/19 06:01:31;;;;;;;15.50;4.38;;;;;;;9.55;100.00;101202.00;5014151;28;20062;-79
2022/09/19 06:03:59;;;;;;;14.05;4.10;;;;;;;9.61;100.00;101201.47;5015519;28;20088;-79
2022/09/19 06:06:27;;;;;;;18.92;4.80;;;;;;;9.58;100.00;101200.91;5012773;28;20057;-79
2022/09/19 06:08:58;;;;;;;14.57;4.38;;;;;;;9.63;100.00;101207.41;5012759;28;20054;-78
2022/09/19 06:11:24;;;;;;;13.15;4.28;;;;;;;9.67;100.00;101207.13;5013737;28;20040;-80
2022/09/19 06:16:35;;;;;;;16.52;4.90;;;;;;;9.78;100.00;101210.44;5017593;28;20045;-80
2022/09/19 06:21:31;;;;;;;12.90;4.10;;;;;;;9.88;100.00;101211.28;5004960;28;20050;-84
2022/09/19 06:24:01;;;;;;;15.50;3.90;;;;;;;9.88;100.00;101203.44;5004244;28;20046;-80
2022/09/19 06:26:33;;;;;;;15.90;4.50;;;;;;;10.01;100.00;101233.69;5000255;28;20046;-80
2022/09/19 06:29:03;;;;;;;13.55;4.43;;;;;;;10.06;100.00;101232.31;4999281;28;20054;-83
2022/09/19 06:31:29;;;;;;;21.83;4.30;;;;;;;10.13;100.00;101228.19;4985574;28;20093;-80
2022/09/19 06:33:57;;;;;;;15.40;4.32;;;;;;;10.20;100.00;101236.34;4977832;28;20138;-80
2022/09/19 06:36:23;;;;;;;15.70;4.00;;;;;;;10.26;100.00;101235.78;4977915;28;20093;-80
2022/09/19 06:38:50;;;;;;;15.93;5.20;;;;;;;10.31;100.00;101241.44;4978483;28;20126;-79
2022/09/19 06:41:18;;;;;;;13.20;3.70;;;;;;;10.33;100.00;101244.72;4979233;28;20108;-80
2022/09/19 06:43:45;;;;;;;17.05;4.60;;;;;;;10.44;100.00;101247.16;4978333;28;20291;-78
2022/09/19 06:46:12;;;;;;;31.33;7.07;;;;;;;10.53;100.00;101250.75;4986511;28;20054;-79
2022/09/19 06:48:39;;;;;;;16.45;4.15;;;;;;;10.54;100.00;101249.78;4997080;28;20054;-79
2022/09/19 06:51:07;;;;;;;15.55;4.22;;;;;;;10.61;100.00;101256.09;4998498;28;20149;-80
2022/09/19 06:53:33;;;;;;;11.88;3.88;;;;;;;10.61;100.00;101258.72;5000361;28;20104;-81
2022/09/19 06:56:00;;;;;;;13.50;4.00;;;;;;;10.64;100.00;101264.50;4999023;28;20606;-80
2022/09/19 06:58:28;;;;;;;15.23;4.70;;;;;;;10.69;100.00;101265.88;4998637;28;20239;-79
2022/09/19 07:00:55;;;;;;;14.20;3.90;;;;;;;10.82;100.00;101267.22;4997586;28;20473;-78
2022/09/19 07:03:22;;;;;;;15.88;4.40;;;;;;;10.92;99.83;101270.63;4996815;28;20126;-78
2022/09/19 07:05:51;;;;;;;17.08;3.97;;;;;;;10.95;99.83;101269.50;4998492;28;20089;-81
2022/09/19 07:08:17;;;;;;;10.30;3.90;;;;;;;11.23;99.46;101262.53;4996525;28;20600;-79
2022/09/19 07:10:44;;;;;;;16.85;5.20;;;;;;;11.44;98.16;101265.72;4993691;28;20498;-79
2022/09/19 07:13:16;;;;;;;23.05;6.55;;;;;;;11.38;97.85;101268.09;4978993;28;20082;-79
2022/09/19 07:15:44;;;;;;;10.48;3.97;;;;;;;11.18;99.26;101267.38;4979276;28;20473;-79
2022/09/19 07:18:13;;;;;;;16.55;3.83;;;;;;;11.14;99.07;101274.69;4978772;28;20065;-81
2022/09/19 07:20:40;;;;;;;11.88;3.67;;;;;;;11.21;100.00;101285.41;4978005;28;20155;-81
2022/09/19 07:23:10;;;;;;;16.23;3.83;;;;;;;11.26;99.82;101285.81;4982618;28;20128;-79
2022/09/19 07:25:37;;;;;;;19.45;5.03;;;;;;;11.46;99.28;101292.59;4995425;28;20074;-81
2022/09/19 07:28:06;;;;;;;18.17;3.67;;;;;;;11.56;98.55;101288.13;4996064;28;20058;-81
2022/09/19 07:30:35;;;;;;;13.18;4.05;;;;;;;11.57;97.87;101295.03;4993885;28;20077;-81
2022/09/19 07:33:06;;;;;;;12.82;4.05;;;;;;;11.48;97.95;101289.84;4995334;28;20134;-80
2022/09/19 07:35:35;;;;;;;14.25;4.07;;;;;;;11.53;97.75;101306.78;4996217;28;20054;-80
2022/09/19 07:38:02;;;;;;;9.93;3.70;;;;;;;11.58;97.73;101298.47;4988145;28;20125;-79
2022/09/19 07:40:28;;;;;;;12.05;3.83;;;;;;;11.53;97.72;101298.91;4977865;28;20058;-80
2022/09/19 07:43:00;;;;;;;17.95;4.20;;;;;;;11.60;97.70;101310.47;4977451;28;20529;-81
2022/09/19 07:45:27;;;;;;;15.70;3.83;;;;;;;11.60;97.05;101304.41;4978389;28;20425;-81
2022/09/19 07:47:55;;;;;;;13.13;4.40;;;;;;;11.61;97.18;101304.25;4984545;28;20093;-80
2022/09/19 07:50:23;;;;;;;11.48;4.15;;;;;;;11.77;97.06;101310.69;4977201;28;20477;-81
2022/09/19 07:52:58;;;;;;;14.05;4.15;;;;;;;11.81;96.32;101318.13;4977490;28;20138;-80
2022/09/19 07:55:25;;;;;;;16.00;4.30;;;;;;;11.75;96.88;101312.59;4978601;28;20133;-82
2022/09/19 07:57:56;;;;;;;13.80;4.25;;;;;;;11.72;96.99;101311.09;4996359;28;20058;-80
2022/09/19 08:00:25;;;;;;;10.48;3.72;;;;;;;11.80;97.39;101320.88;4994265;28;20053;-81
2022/09/19 08:02:56;;;;;;;14.48;3.88;;;;;;;11.86;97.08;101315.03;4996234;28;20058;-80
2022/09/19 08:05:25;;;;;;;16.27;4.22;;;;;;;11.82;96.94;101327.59;4996355;28;20464;-80
2022/09/19 08:07:52;;;;;;;11.73;4.00;;;;;;;11.83;97.52;101324.00;4994585;28;20104;-81
2022/09/19 08:10:22;;;;;;;13.60;3.85;;;;;;;11.76;97.32;101330.81;4996933;28;20106;-81
2022/09/19 08:12:49;;;;;;;11.60;3.60;;;;;;;11.81;97.44;101333.84;4996638;28;20125;-79
2022/09/19 08:15:17;;;;;;;17.75;4.10;;;;;;;11.88;98.23;101339.31;4991871;28;20141;-80
2022/09/19 08:17:54;;;;;;;14.88;4.30;;;;;;;11.85;98.43;101335.19;4984730;28;20060;-81
2022/09/19 08:20:21;;;;;;;12.93;4.00;;;;;;;11.84;97.68;101344.00;4977964;28;20114;-80
2022/09/19 08:22:49;;;;;;;17.13;4.18;;;;;;;12.02;97.84;101357.19;4987664;28;20086;-82
2022/09/19 08:25:16;;;;;;;14.70;4.03;;;;;;;12.09;97.55;101350.38;4977481;28;20066;-82
2022/09/19 08:27:44;;;;;;;15.48;4.35;;;;;;;12.17;98.91;101353.06;4992859;28;20054;-81
2022/09/19 08:30:12;;;;;;;11.88;4.47;;;;;;;12.10;98.97;101359.06;4996455;28;20504;-80
2022/09/19 08:32:38;;;;;;;10.45;3.63;;;;;;;12.08;99.65;101353.97;4996633;28;20243;-80
2022/09/19 08:35:05;;;;;;;18.25;4.35;;;;;;;12.16;99.31;101356.69;4996698;28;20129;-80
2022/09/19 08:37:32;;;;;;;21.90;4.72;;;;;;;12.53;98.53;101368.81;4998095;28;20109;-79
2022/09/19 08:40:19;;;;;;;18.00;4.38;;;;;;;12.75;96.97;101360.50;4993754;28;20186;-81
2022/09/19 08:42:58;;;;;;;12.90;3.85;;;;;;;12.82;95.81;101366.75;4998560;28;20063;-81
2022/09/19 08:45:33;;;;;;;13.20;3.60;;;;;;;13.00;94.33;101365.91;4996945;28;20138;-80
2022/09/19 08:48:05;;;;;;;13.23;3.80;;;;;;;13.22;94.01;101365.44;4984727;28;20102;-80
2022/09/19 08:50:35;;;;;;;16.23;4.20;;;;;;;13.64;93.27;101362.03;4980721;28;20057;-82
2022/09/19 08:53:07;;;;;;;17.95;4.13;;;;;;;13.93;90.56;101362.44;4983765;28;20046;-78
2022/09/19 08:55:36;;;;;;;10.00;3.80;;;;;;;13.82;89.40;101365.38;4980363;28;20057;-80
2022/09/19 08:58:07;;;;;;;14.15;3.95;;;;;;;14.22;89.29;101362.00;4991253;28;20170;-80
2022/09/19 09:00:39;;;;;;;15.30;3.70;;;;;;;14.82;85.68;101372.28;4989522;28;20125;-78
2022/09/19 09:03:09;;;;;;;12.38;4.00;;;;;;;14.56;86.29;101367.19;4989183;28;20122;-81
2022/09/19 09:05:52;;;;;;;13.70;3.72;;;;;;;14.06;86.23;101364.63;4986444;28;20051;-78
2022/09/19 09:08:32;;;;;;;15.75;4.10;;;;;;;14.02;87.94;101365.94;4982098;28;20062;-81
2022/09/19 09:11:12;;;;;;;15.43;4.40;;;;;;;13.82;88.22;101370.63;4987579;28;20134;-81
2022/09/19 09:13:50;;;;;;;13.43;4.30;;;;;;;13.82;88.40;101365.38;4985139;28;20133;-80
2022/09/19 09:16:23;;;;;;;11.23;4.18;;;;;;;14.06;87.63;101354.94;4983559;28;20054;-80
2022/09/19 09:19:04;;;;;;;14.88;4.28;;;;;;;14.57;85.24;101363.59;4985912;28;20195;-80
2022/09/19 09:21:42;;;;;;;14.38;4.10;;;;;;;14.54;85.66;101369.19;4977088;28;20054;-82
2022/09/19 09:24:16;;;;;;;11.50;4.13;;;;;;;14.56;85.35;101369.84;4977291;28;20506;-81
2022/09/19 09:26:50;;;;;;;12.52;3.95;;;;;;;14.67;85.26;101366.84;4980150;28;20046;-82
2022/09/19 09:29:28;;;;;;;19.52;4.13;;;;;;;14.54;84.86;101372.63;4993346;28;20160;-80
2022/09/19 09:31:59;;;;;;;15.18;3.72;;;;;;;14.73;85.56;101371.47;4996530;28;20253;-80
2022/09/19 09:34:29;;;;;;;12.75;3.42;;;;;;;14.85;85.76;101370.16;4994993;28;20446;-79
2022/09/19 09:37:02;;;;;;;11.85;3.53;;;;;;;14.90;84.72;101369.66;4989735;28;20061;-80
2022/09/19 09:39:39;;;;;;;13.05;4.20;;;;;;;15.03;85.00;101369.97;4984356;28;20054;-80
2022/09/19 09:42:11;;;;;;;12.07;3.60;;;;;;;15.10;84.36;101359.59;4986599;28;20661;-78
2022/09/19 09:44:57;;;;;;;9.70;3.53;;;;;;;15.14;84.03;101364.34;4984978;28;20042;-80
2022/09/19 09:47:39;;;;;;;15.05;3.97;;;;;;;15.35;82.95;101371.72;4994359;28;20050;-79
2022/09/19 09:50:19;;;;;;;12.10;3.60;;;;;;;15.45;81.85;101369.72;4982090;28;20058;-78
2022/09/19 09:52:54;;;;;;;13.13;4.45;;;;;;;15.50;82.69;101370.03;4977120;28;20302;-80
2022/09/19 09:58:39;;;;;;;13.13;4.18;;;;;;;15.23;82.59;101362.50;4990459;28;20053;-78
2022/09/19 10:04:13;;;;;;;9.23;3.63;;;;;;;15.43;82.06;101363.78;4987844;28;20066;-79
2022/09/19 10:06:52;;;;;;;9.85;3.55;;;;;;;15.65;81.70;101369.31;4982084;28;20132;-78
2022/09/19 10:09:23;;;;;;;16.33;4.82;;;;;;;15.35;82.10;101361.16;4987297;28;20081;-79
2022/09/19 10:11:57;;;;;;;12.35;4.20;;;;;;;15.48;82.38;101356.19;4997850;28;20141;-77
2022/09/19 10:14:28;;;;;;;9.73;3.60;;;;;;;15.77;82.51;101370.59;4996214;28;20050;-78
2022/09/19 10:16:56;;;;;;;12.73;3.97;;;;;;;15.73;82.21;101366.66;4995038;28;20066;-79
2022/09/19 10:19:30;;;;;;;15.40;4.40;;;;;;;15.49;81.60;101352.56;4993888;28;20043;-79
2022/09/19 10:21:59;;;;;;;13.85;5.07;;;;;;;15.34;82.58;101363.97;5004074;28;20110;-77
2022/09/19 10:24:50;;;;;;;7.40;4.13;;;;;;;15.50;82.21;101348.91;5008485;28;20408;-79
2022/09/19 10:27:23;;;;;;;13.80;4.93;;;;;;;16.08;81.11;101350.28;4992849;28;20126;-80
2022/09/19 10:29:59;;;;;;;16.20;4.07;;;;;;;16.45;79.32;101343.47;4960776;28;20052;-79
2022/09/19 10:32:28;;;;;;;11.55;4.28;;;;;;;16.54;78.89;101347.69;4874577;29;20070;-81
2022/09/19 10:34:54;;;;;;;17.27;4.28;;;;;;;16.77;78.41;101356.41;4819175;29;20557;-82
2022/09/19 12:45:06;;;;;;;7.70;2.23;;;;;;;13.20;90.15;101385.78;4516685;31;20309;-76
2022/09/19 12:47:54;;;;;;;6.47;2.20;;;;;;;13.12;91.95;101381.28;4463689;31;1089232;-75
2022/09/19 12:50:29;;;;;;;6.28;2.88;;;;;;;13.12;92.58;101380.44;4500412;31;21125;-75
2022/09/19 12:53:24;;;;;;;4.22;1.77;;;;;;;12.89;94.75;101372.22;4518962;31;20092;-75
2022/09/19 12:56:00;;;;;;;4.32;2.17;;;;;;;12.89;95.53;101365.16;4532245;31;20064;-76
2022/09/19 12:58:33;;;;;;;3.60;1.95;;;;;;;12.76;95.97;101364.72;4532676;31;20141;-76
2022/09/19 13:01:14;;;;;;;6.85;2.22;;;;;;;12.79;96.25;101356.56;4533951;31;20442;-76
2022/09/19 13:03:45;;;;;;;3.20;2.17;;;;;;;12.68;95.50;101362.06;4533034;31;20666;-78
2022/09/19 13:06:18;;;;;;;6.38;2.78;;;;;;;12.74;95.20;101353.59;4533332;31;20121;-77
2022/09/19 13:08:50;;;;;;;4.72;1.90;;;;;;;12.83;96.21;101357.91;4532977;31;20069;-77
2022/09/19 13:11:24;;;;;;;7.22;2.00;;;;;;;12.93;96.18;101356.00;4533309;31;20089;-75
2022/09/19 13:13:53;;;;;;;4.10;1.90;;;;;;;12.92;96.53;101356.16;4531638;31;20121;-76
2022/09/19 13:16:28;;;;;;;4.30;2.05;;;;;;;13.00;96.28;101358.03;4532231;31;20066;-77
2022/09/19 13:24:38;;;;;;;4.53;2.15;;;;;;;13.07;89.78;101349.38;4529534;31;20509;-75
2022/09/19 13:27:05;;;;;;;5.70;1.90;;;;;;;13.22;89.57;101339.16;4530386;31;20073;-76
2022/09/19 13:29:48;;;;;;;5.60;2.22;;;;;;;13.42;87.34;101337.94;4529801;31;20068;-76
2022/09/19 13:32:52;;;;;;;8.13;2.10;;;;;;;13.49;86.03;101344.22;4532230;31;20087;-76
2022/09/19 13:35:22;;;;;;;4.70;2.05;;;;;;;13.53;85.65;101348.16;4531551;31;20118;-76
2022/09/19 13:37:59;;;;;;;4.00;2.05;;;;;;;13.67;86.35;101340.66;4531238;31;20062;-76
2022/09/19 13:40:40;;;;;;;5.68;2.42;;;;;;;13.82;85.73;101334.63;4531758;31;20062;-75
2022/09/19 13:43:21;;;;;;;8.48;2.65;;;;;;;14.14;86.10;101349.69;4569707;30;20502;-75
2022/09/19 13:45:54;;;;;;;7.50;2.50;;;;;;;14.45;85.83;101346.44;4710378;30;20444;-75
2022/09/19 13:48:32;;;;;;;5.45;2.30;;;;;;;14.54;84.32;101327.03;4762779;30;20147;-77
2022/09/19 13:51:05;;;;;;;8.35;3.38;;;;;;;14.89;83.63;101339.03;4761515;30;20147;-76
2022/09/19 13:53:38;;;;;;;7.93;3.58;;;;;;;15.31;82.55;101338.75;4763842;30;20443;-76
2022/09/19 13:56:24;;;;;;;8.18;2.83;;;;;;;15.89;81.18;101342.84;4766864;30;20101;-76
2022/09/19 13:59:12;;;;;;;7.22;2.50;;;;;;;15.96;79.81;101330.59;4769538;30;20063;-77
2022/09/19 14:01:41;;;;;;;5.55;2.00;;;;;;;15.76;76.81;101324.09;4769542;30;20107;-75
2022/09/19 14:07:04;;;;;;;5.40;2.40;;;;;;;15.93;77.96;101328.28;4774250;30;20411;-77
2022/09/19 14:09:40;;;;;;;9.95;3.05;;;;;;;16.06;76.83;101325.09;4769675;30;20138;-76
2022/09/19 14:12:47;;;;;;;7.22;2.70;;;;;;;16.10;77.00;101324.53;4769934;30;20068;-77
2022/09/19 14:15:46;;;;;;;7.65;2.85;;;;;;;15.92;77.07;101327.47;4768337;30;20250;-76
2022/09/19 14:18:54;;;;;;;4.65;2.63;;;;;;;15.75;78.93;101327.72;4756312;30;20143;-76
2022/09/19 14:21:56;;;;;;;6.45;2.58;;;;;;;15.51;77.56;101328.66;4768995;30;20463;-76
2022/09/19 14:24:50;;;;;;;8.87;2.87;;;;;;;15.51;78.29;101328.66;4769383;30;20075;-76
2022/09/19 14:27:58;;;;;;;9.18;2.95;;;;;;;15.53;78.03;101321.38;4769670;30;20306;-76
2022/09/19 14:30:57;;;;;;;11.52;3.22;;;;;;;15.75;78.51;101325.09;4773686;30;20531;-78